sensor_id;sensor_type;location;lat;lon;timestamp;P1;durP1;ratioP1;P2;durP2;ratioP2
13592;SDS011;6867;50.998;4.250;2023-07-31T00:00:49;11.15;;;4.70;;
13592;SDS011;6867;50.998;4.250;2023-07-31T00:03:16;9.60;;;4.43;;
13592;SDS011;6867;50.998;4.250;2023-07-31T00:05:43;15.32;;;4.72;;
13592;SDS011;6867;50.998;4.250;2023-07-31T00:08:11;13.48;;;4.47;;
13592;SDS011;6867;50.998;4.250;2023-07-31T00:10:37;13.70;;;5.10;;
13592;SDS011;6867;50.998;4.250;2023-07-31T00:13:04;15.73;;;4.63;;
13592;SDS011;6867;50.998;4.250;2023-07-31T00:15:30;11.52;;;4.72;;
13592;SDS011;6867;50.998;4.250;2023-07-31T00:17:57;12.63;;;4.78;;
13592;SDS011;6867;50.998;4.250;2023-07-31T00:20:24;12.48;;;4.63;;
13592;SDS011;6867;50.998;4.250;2023-07-31T00:22:51;9.30;;;4.53;;
13592;SDS011;6867;50.998;4.250;2023-07-31T00:25:19;10.55;;;4.28;;
13592;SDS011;6867;50.998;4.250;2023-07-31T00:27:45;14.73;;;4.57;;
13592;SDS011;6867;50.998;4.250;2023-07-31T00:30:12;13.32;;;4.55;;
13592;SDS011;6867;50.998;4.250;2023-07-31T00:32:39;8.90;;;4.43;;
13592;SDS011;6867;50.998;4.250;2023-07-31T00:35:05;14.13;;;4.80;;
13592;SDS011;6867;50.998;4.250;2023-07-31T00:37:32;8.05;;;4.70;;
13592;SDS011;6867;50.998;4.250;2023-07-31T00:39:59;9.43;;;4.88;;
13592;SDS011;6867;50.998;4.250;2023-07-31T00:42:27;12.18;;;4.63;;
13592;SDS011;6867;50.998;4.250;2023-07-31T00:44:54;11.48;;;4.50;;
13592;SDS011;6867;50.998;4.250;2023-07-31T00:47:20;13.45;;;4.50;;
13592;SDS011;6867;50.998;4.250;2023-07-31T00:49:47;13.07;;;4.72;;
13592;SDS011;6867;50.998;4.250;2023-07-31T00:52:14;12.07;;;4.22;;
13592;SDS011;6867;50.998;4.250;2023-07-31T00:54:41;14.23;;;4.97;;
13592;SDS011;6867;50.998;4.250;2023-07-31T00:57:08;11.93;;;4.53;;
13592;SDS011;6867;50.998;4.250;2023-07-31T00:59:36;14.25;;;4.63;;
13592;SDS011;6867;50.998;4.250;2023-07-31T01:02:03;11.45;;;5.32;;
13592;SDS011;6867;50.998;4.250;2023-07-31T01:04:30;16.40;;;4.35;;
13592;SDS011;6867;50.998;4.250;2023-07-31T01:07:00;14.68;;;5.05;;
13592;SDS011;6867;50.998;4.250;2023-07-31T01:09:34;11.82;;;4.78;;
13592;SDS011;6867;50.998;4.250;2023-07-31T01:12:06;14.98;;;5.15;;
13592;SDS011;6867;50.998;4.250;2023-07-31T01:14:33;14.57;;;4.80;;
13592;SDS011;6867;50.998;4.250;2023-07-31T01:17:01;17.05;;;4.60;;
13592;SDS011;6867;50.998;4.250;2023-07-31T01:19:28;13.93;;;4.80;;
13592;SDS011;6867;50.998;4.250;2023-07-31T01:22:02;12.13;;;4.25;;
13592;SDS011;6867;50.998;4.250;2023-07-31T01:24:45;10.40;;;4.40;;
13592;SDS011;6867;50.998;4.250;2023-07-31T01:27:30;13.45;;;4.70;;
13592;SDS011;6867;50.998;4.250;2023-07-31T01:30:03;13.15;;;5.55;;
13592;SDS011;6867;50.998;4.250;2023-07-31T01:32:36;14.85;;;4.78;;
13592;SDS011;6867;50.998;4.250;2023-07-31T01:35:05;16.38;;;5.28;;
13592;SDS011;6867;50.998;4.250;2023-07-31T01:37:34;12.07;;;5.22;;
13592;SDS011;6867;50.998;4.250;2023-07-31T01:40:00;12.07;;;4.90;;
13592;SDS011;6867;50.998;4.250;2023-07-31T01:42:27;14.98;;;5.00;;
13592;SDS011;6867;50.998;4.250;2023-07-31T01:44:55;12.32;;;5.00;;
13592;SDS011;6867;50.998;4.250;2023-07-31T01:47:22;14.27;;;4.60;;
13592;SDS011;6867;50.998;4.250;2023-07-31T01:49:49;8.80;;;3.97;;
13592;SDS011;6867;50.998;4.250;2023-07-31T01:52:16;12.52;;;4.43;;
13592;SDS011;6867;50.998;4.250;2023-07-31T01:54:42;13.43;;;5.00;;
13592;SDS011;6867;50.998;4.250;2023-07-31T01:57:09;13.10;;;4.63;;
13592;SDS011;6867;50.998;4.250;2023-07-31T01:59:36;10.70;;;4.32;;
13592;SDS011;6867;50.998;4.250;2023-07-31T02:02:04;14.93;;;4.57;;
13592;SDS011;6867;50.998;4.250;2023-07-31T02:04:31;13.57;;;4.22;;
13592;SDS011;6867;50.998;4.250;2023-07-31T02:06:59;15.55;;;4.70;;
13592;SDS011;6867;50.998;4.250;2023-07-31T02:09:26;11.73;;;4.80;;
13592;SDS011;6867;50.998;4.250;2023-07-31T02:11:52;15.60;;;5.50;;
13592;SDS011;6867;50.998;4.250;2023-07-31T02:14:19;16.20;;;4.35;;
13592;SDS011;6867;50.998;4.250;2023-07-31T02:16:45;11.18;;;4.20;;
13592;SDS011;6867;50.998;4.250;2023-07-31T02:19:13;19.40;;;5.57;;
13592;SDS011;6867;50.998;4.250;2023-07-31T02:21:40;10.30;;;3.95;;
13592;SDS011;6867;50.998;4.250;2023-07-31T02:24:07;9.60;;;4.25;;
13592;SDS011;6867;50.998;4.250;2023-07-31T02:26:33;9.18;;;4.38;;
13592;SDS011;6867;50.998;4.250;2023-07-31T02:29:00;17.77;;;5.18;;
13592;SDS011;6867;50.998;4.250;2023-07-31T02:31:27;13.95;;;4.28;;
13592;SDS011;6867;50.998;4.250;2023-07-31T02:33:53;10.30;;;4.13;;
13592;SDS011;6867;50.998;4.250;2023-07-31T02:36:21;7.50;;;4.18;;
13592;SDS011;6867;50.998;4.250;2023-07-31T02:38:48;9.57;;;4.47;;
13592;SDS011;6867;50.998;4.250;2023-07-31T02:41:14;14.20;;;4.50;;
13592;SDS011;6867;50.998;4.250;2023-07-31T02:43:41;13.63;;;5.07;;
13592;SDS011;6867;50.998;4.250;2023-07-31T02:46:08;13.18;;;4.90;;
13592;SDS011;6867;50.998;4.250;2023-07-31T02:48:35;11.25;;;4.82;;
13592;SDS011;6867;50.998;4.250;2023-07-31T02:51:02;15.43;;;4.40;;
13592;SDS011;6867;50.998;4.250;2023-07-31T02:53:30;8.43;;;3.90;;
13592;SDS011;6867;50.998;4.250;2023-07-31T02:55:57;13.85;;;5.10;;
13592;SDS011;6867;50.998;4.250;2023-07-31T02:58:23;14.20;;;5.20;;
13592;SDS011;6867;50.998;4.250;2023-07-31T03:00:50;14.45;;;5.28;;
13592;SDS011;6867;50.998;4.250;2023-07-31T03:03:16;9.82;;;5.28;;
13592;SDS011;6867;50.998;4.250;2023-07-31T03:05:43;11.27;;;5.38;;
13592;SDS011;6867;50.998;4.250;2023-07-31T03:08:10;11.35;;;5.68;;
13592;SDS011;6867;50.998;4.250;2023-07-31T03:10:38;15.52;;;6.07;;
13592;SDS011;6867;50.998;4.250;2023-07-31T03:13:04;10.73;;;5.45;;
13592;SDS011;6867;50.998;4.250;2023-07-31T03:15:31;10.00;;;5.03;;
13592;SDS011;6867;50.998;4.250;2023-07-31T03:17:58;16.38;;;5.90;;
13592;SDS011;6867;50.998;4.250;2023-07-31T03:20:24;11.60;;;5.28;;
13592;SDS011;6867;50.998;4.250;2023-07-31T03:22:51;9.55;;;5.72;;
13592;SDS011;6867;50.998;4.250;2023-07-31T03:25:17;10.95;;;4.95;;
13592;SDS011;6867;50.998;4.250;2023-07-31T03:27:45;9.43;;;5.10;;
13592;SDS011;6867;50.998;4.250;2023-07-31T03:30:12;11.07;;;5.03;;
13592;SDS011;6867;50.998;4.250;2023-07-31T03:32:39;8.93;;;4.97;;
13592;SDS011;6867;50.998;4.250;2023-07-31T03:35:05;11.45;;;4.70;;
13592;SDS011;6867;50.998;4.250;2023-07-31T03:37:32;11.60;;;4.53;;
13592;SDS011;6867;50.998;4.250;2023-07-31T03:39:59;8.82;;;4.20;;
13592;SDS011;6867;50.998;4.250;2023-07-31T03:42:26;6.43;;;4.00;;
13592;SDS011;6867;50.998;4.250;2023-07-31T03:44:54;10.02;;;4.45;;
13592;SDS011;6867;50.998;4.250;2023-07-31T03:47:20;10.90;;;5.78;;
13592;SDS011;6867;50.998;4.250;2023-07-31T03:49:47;6.00;;;4.50;;
13592;SDS011;6867;50.998;4.250;2023-07-31T03:52:14;7.70;;;4.03;;
13592;SDS011;6867;50.998;4.250;2023-07-31T03:54:41;11.55;;;4.82;;
13592;SDS011;6867;50.998;4.250;2023-07-31T03:57:09;8.40;;;4.63;;
13592;SDS011;6867;50.998;4.250;2023-07-31T03:59:36;10.68;;;4.75;;
13592;SDS011;6867;50.998;4.250;2023-07-31T04:02:05;9.95;;;5.03;;
13592;SDS011;6867;50.998;4.250;2023-07-31T04:04:31;7.70;;;4.20;;
13592;SDS011;6867;50.998;4.250;2023-07-31T04:06:58;10.80;;;4.72;;
13592;SDS011;6867;50.998;4.250;2023-07-31T04:09:25;10.27;;;4.63;;
13592;SDS011;6867;50.998;4.250;2023-07-31T04:11:51;11.50;;;4.63;;
13592;SDS011;6867;50.998;4.250;2023-07-31T04:14:18;7.95;;;5.00;;
13592;SDS011;6867;50.998;4.250;2023-07-31T04:16:44;10.80;;;5.70;;
13592;SDS011;6867;50.998;4.250;2023-07-31T04:19:12;10.50;;;4.97;;
13592;SDS011;6867;50.998;4.250;2023-07-31T04:21:41;8.05;;;4.57;;
13592;SDS011;6867;50.998;4.250;2023-07-31T04:24:08;9.43;;;5.50;;
13592;SDS011;6867;50.998;4.250;2023-07-31T04:26:35;9.00;;;5.20;;
13592;SDS011;6867;50.998;4.250;2023-07-31T04:29:01;12.55;;;4.88;;
13592;SDS011;6867;50.998;4.250;2023-07-31T04:31:28;7.43;;;5.25;;
13592;SDS011;6867;50.998;4.250;2023-07-31T04:33:54;7.00;;;5.05;;
13592;SDS011;6867;50.998;4.250;2023-07-31T04:36:22;10.63;;;5.20;;
13592;SDS011;6867;50.998;4.250;2023-07-31T04:38:49;7.03;;;4.63;;
13592;SDS011;6867;50.998;4.250;2023-07-31T04:41:16;8.32;;;5.18;;
13592;SDS011;6867;50.998;4.250;2023-07-31T04:43:42;11.48;;;5.80;;
13592;SDS011;6867;50.998;4.250;2023-07-31T04:46:09;10.45;;;6.35;;
13592;SDS011;6867;50.998;4.250;2023-07-31T04:48:35;12.40;;;5.57;;
13592;SDS011;6867;50.998;4.250;2023-07-31T04:51:02;13.40;;;6.07;;
13592;SDS011;6867;50.998;4.250;2023-07-31T04:53:30;10.57;;;5.53;;
13592;SDS011;6867;50.998;4.250;2023-07-31T04:55:57;18.30;;;5.72;;
13592;SDS011;6867;50.998;4.250;2023-07-31T04:58:23;12.70;;;6.53;;
13592;SDS011;6867;50.998;4.250;2023-07-31T05:00:50;11.60;;;6.03;;
13592;SDS011;6867;50.998;4.250;2023-07-31T05:03:17;9.55;;;5.60;;
13592;SDS011;6867;50.998;4.250;2023-07-31T05:05:43;7.30;;;5.05;;
13592;SDS011;6867;50.998;4.250;2023-07-31T05:08:10;10.07;;;4.93;;
13592;SDS011;6867;50.998;4.250;2023-07-31T05:10:38;13.98;;;5.50;;
13592;SDS011;6867;50.998;4.250;2023-07-31T05:13:05;10.88;;;5.75;;
13592;SDS011;6867;50.998;4.250;2023-07-31T05:15:31;10.13;;;5.78;;
13592;SDS011;6867;50.998;4.250;2023-07-31T05:17:58;13.85;;;6.28;;
13592;SDS011;6867;50.998;4.250;2023-07-31T05:20:25;9.63;;;5.38;;
13592;SDS011;6867;50.998;4.250;2023-07-31T05:22:52;9.32;;;5.78;;
13592;SDS011;6867;50.998;4.250;2023-07-31T05:25:19;10.82;;;6.53;;
13592;SDS011;6867;50.998;4.250;2023-07-31T05:27:47;12.00;;;6.50;;
13592;SDS011;6867;50.998;4.250;2023-07-31T05:30:14;9.20;;;6.00;;
13592;SDS011;6867;50.998;4.250;2023-07-31T05:32:40;9.45;;;6.15;;
13592;SDS011;6867;50.998;4.250;2023-07-31T05:35:07;12.32;;;6.05;;
13592;SDS011;6867;50.998;4.250;2023-07-31T05:37:34;10.75;;;5.80;;
13592;SDS011;6867;50.998;4.250;2023-07-31T05:40:01;11.60;;;6.03;;
13592;SDS011;6867;50.998;4.250;2023-07-31T05:42:27;12.13;;;6.60;;
13592;SDS011;6867;50.998;4.250;2023-07-31T05:44:55;10.70;;;6.25;;
13592;SDS011;6867;50.998;4.250;2023-07-31T05:47:22;10.88;;;6.57;;
13592;SDS011;6867;50.998;4.250;2023-07-31T05:49:49;9.98;;;5.65;;
13592;SDS011;6867;50.998;4.250;2023-07-31T05:52:17;10.63;;;6.10;;
13592;SDS011;6867;50.998;4.250;2023-07-31T05:54:44;12.80;;;6.07;;
13592;SDS011;6867;50.998;4.250;2023-07-31T05:57:11;15.48;;;6.75;;
13592;SDS011;6867;50.998;4.250;2023-07-31T05:59:38;13.73;;;6.45;;
13592;SDS011;6867;50.998;4.250;2023-07-31T06:02:06;11.93;;;5.78;;
13592;SDS011;6867;50.998;4.250;2023-07-31T06:04:33;12.35;;;6.43;;
13592;SDS011;6867;50.998;4.250;2023-07-31T06:06:59;14.02;;;5.47;;
13592;SDS011;6867;50.998;4.250;2023-07-31T06:09:26;9.50;;;5.43;;
13592;SDS011;6867;50.998;4.250;2023-07-31T06:11:53;8.68;;;5.18;;
13592;SDS011;6867;50.998;4.250;2023-07-31T06:14:20;7.50;;;4.68;;
13592;SDS011;6867;50.998;4.250;2023-07-31T06:16:47;10.43;;;5.10;;
13592;SDS011;6867;50.998;4.250;2023-07-31T06:19:15;9.40;;;4.97;;
13592;SDS011;6867;50.998;4.250;2023-07-31T06:21:41;12.05;;;4.82;;
13592;SDS011;6867;50.998;4.250;2023-07-31T06:24:09;8.18;;;4.85;;
13592;SDS011;6867;50.998;4.250;2023-07-31T06:26:37;11.07;;;4.90;;
13592;SDS011;6867;50.998;4.250;2023-07-31T06:29:03;11.48;;;5.00;;
13592;SDS011;6867;50.998;4.250;2023-07-31T06:31:30;10.65;;;5.32;;
13592;SDS011;6867;50.998;4.250;2023-07-31T06:33:57;10.77;;;4.65;;
13592;SDS011;6867;50.998;4.250;2023-07-31T06:36:25;9.50;;;4.90;;
13592;SDS011;6867;50.998;4.250;2023-07-31T06:38:51;7.53;;;4.15;;
13592;SDS011;6867;50.998;4.250;2023-07-31T06:41:18;8.23;;;4.70;;
13592;SDS011;6867;50.998;4.250;2023-07-31T06:43:45;12.20;;;4.53;;
13592;SDS011;6867;50.998;4.250;2023-07-31T06:46:11;11.00;;;3.95;;
13592;SDS011;6867;50.998;4.250;2023-07-31T06:48:38;7.60;;;4.00;;
13592;SDS011;6867;50.998;4.250;2023-07-31T06:51:05;6.50;;;4.25;;
13592;SDS011;6867;50.998;4.250;2023-07-31T06:53:33;12.50;;;4.63;;
13592;SDS011;6867;50.998;4.250;2023-07-31T06:56:00;11.52;;;4.15;;
13592;SDS011;6867;50.998;4.250;2023-07-31T06:58:26;6.97;;;4.20;;
13592;SDS011;6867;50.998;4.250;2023-07-31T07:00:53;7.55;;;3.90;;
13592;SDS011;6867;50.998;4.250;2023-07-31T07:03:19;9.30;;;3.53;;
13592;SDS011;6867;50.998;4.250;2023-07-31T07:05:46;7.00;;;3.67;;
13592;SDS011;6867;50.998;4.250;2023-07-31T07:08:13;8.40;;;3.90;;
13592;SDS011;6867;50.998;4.250;2023-07-31T07:10:41;7.50;;;3.85;;
13592;SDS011;6867;50.998;4.250;2023-07-31T07:13:08;9.68;;;3.50;;
13592;SDS011;6867;50.998;4.250;2023-07-31T07:15:34;6.55;;;3.53;;
13592;SDS011;6867;50.998;4.250;2023-07-31T07:18:01;5.05;;;3.47;;
13592;SDS011;6867;50.998;4.250;2023-07-31T07:20:28;8.70;;;3.30;;
13592;SDS011;6867;50.998;4.250;2023-07-31T07:22:55;8.73;;;3.92;;
13592;SDS011;6867;50.998;4.250;2023-07-31T07:25:21;5.57;;;3.10;;
13592;SDS011;6867;50.998;4.250;2023-07-31T07:27:49;7.57;;;3.50;;
13592;SDS011;6867;50.998;4.250;2023-07-31T07:30:16;5.75;;;3.58;;
13592;SDS011;6867;50.998;4.250;2023-07-31T07:32:43;11.05;;;3.53;;
13592;SDS011;6867;50.998;4.250;2023-07-31T07:35:09;6.60;;;3.20;;
13592;SDS011;6867;50.998;4.250;2023-07-31T07:37:36;7.78;;;4.15;;
13592;SDS011;6867;50.998;4.250;2023-07-31T07:40:03;8.48;;;4.05;;
13592;SDS011;6867;50.998;4.250;2023-07-31T07:42:30;7.22;;;3.60;;
13592;SDS011;6867;50.998;4.250;2023-07-31T07:44:59;7.63;;;3.80;;
13592;SDS011;6867;50.998;4.250;2023-07-31T07:47:25;8.82;;;3.75;;
13592;SDS011;6867;50.998;4.250;2023-07-31T07:49:52;7.25;;;3.67;;
13592;SDS011;6867;50.998;4.250;2023-07-31T07:52:19;9.32;;;3.95;;
13592;SDS011;6867;50.998;4.250;2023-07-31T07:54:45;5.65;;;3.50;;
13592;SDS011;6867;50.998;4.250;2023-07-31T07:57:12;5.35;;;3.83;;
13592;SDS011;6867;50.998;4.250;2023-07-31T07:59:39;7.72;;;3.10;;
13592;SDS011;6867;50.998;4.250;2023-07-31T08:02:07;8.35;;;3.38;;
13592;SDS011;6867;50.998;4.250;2023-07-31T08:04:34;6.70;;;2.95;;
13592;SDS011;6867;50.998;4.250;2023-07-31T08:07:01;8.98;;;3.58;;
13592;SDS011;6867;50.998;4.250;2023-07-31T08:09:28;6.82;;;3.03;;
13592;SDS011;6867;50.998;4.250;2023-07-31T08:11:54;5.15;;;2.72;;
13592;SDS011;6867;50.998;4.250;2023-07-31T08:14:23;4.95;;;2.90;;
13592;SDS011;6867;50.998;4.250;2023-07-31T08:16:49;6.15;;;3.38;;
13592;SDS011;6867;50.998;4.250;2023-07-31T08:19:17;4.93;;;3.20;;
13592;SDS011;6867;50.998;4.250;2023-07-31T08:21:44;5.70;;;2.78;;
13592;SDS011;6867;50.998;4.250;2023-07-31T08:24:11;7.35;;;3.63;;
13592;SDS011;6867;50.998;4.250;2023-07-31T08:26:37;6.65;;;3.13;;
13592;SDS011;6867;50.998;4.250;2023-07-31T08:29:04;6.00;;;2.95;;
13592;SDS011;6867;50.998;4.250;2023-07-31T08:31:31;7.70;;;2.95;;
13592;SDS011;6867;50.998;4.250;2023-07-31T08:33:57;3.65;;;2.60;;
13592;SDS011;6867;50.998;4.250;2023-07-31T08:36:25;4.13;;;2.95;;
13592;SDS011;6867;50.998;4.250;2023-07-31T08:38:52;7.90;;;3.50;;
13592;SDS011;6867;50.998;4.250;2023-07-31T08:41:19;5.03;;;3.00;;
13592;SDS011;6867;50.998;4.250;2023-07-31T08:43:46;7.53;;;3.25;;
13592;SDS011;6867;50.998;4.250;2023-07-31T08:46:12;5.03;;;2.65;;
13592;SDS011;6867;50.998;4.250;2023-07-31T08:48:41;3.47;;;2.47;;
13592;SDS011;6867;50.998;4.250;2023-07-31T08:51:09;6.35;;;2.80;;
13592;SDS011;6867;50.998;4.250;2023-07-31T08:53:37;4.25;;;2.75;;
13592;SDS011;6867;50.998;4.250;2023-07-31T08:56:04;5.47;;;2.90;;
13592;SDS011;6867;50.998;4.250;2023-07-31T08:58:32;4.60;;;3.03;;
13592;SDS011;6867;50.998;4.250;2023-07-31T09:01:03;5.97;;;3.00;;
13592;SDS011;6867;50.998;4.250;2023-07-31T09:03:33;7.63;;;3.00;;
13592;SDS011;6867;50.998;4.250;2023-07-31T09:06:00;5.38;;;2.60;;
13592;SDS011;6867;50.998;4.250;2023-07-31T09:08:30;5.38;;;2.70;;
13592;SDS011;6867;50.998;4.250;2023-07-31T09:11:00;4.63;;;3.13;;
13592;SDS011;6867;50.998;4.250;2023-07-31T09:13:29;7.40;;;2.90;;
13592;SDS011;6867;50.998;4.250;2023-07-31T09:15:56;5.45;;;2.38;;
13592;SDS011;6867;50.998;4.250;2023-07-31T09:18:22;4.75;;;2.53;;
13592;SDS011;6867;50.998;4.250;2023-07-31T09:21:00;5.07;;;3.38;;
13592;SDS011;6867;50.998;4.250;2023-07-31T09:23:27;8.25;;;3.42;;
13592;SDS011;6867;50.998;4.250;2023-07-31T09:26:08;8.15;;;3.60;;
13592;SDS011;6867;50.998;4.250;2023-07-31T09:28:34;6.40;;;3.40;;
13592;SDS011;6867;50.998;4.250;2023-07-31T09:31:01;6.20;;;3.17;;
13592;SDS011;6867;50.998;4.250;2023-07-31T09:33:28;9.65;;;3.80;;
13592;SDS011;6867;50.998;4.250;2023-07-31T09:35:56;7.97;;;3.40;;
13592;SDS011;6867;50.998;4.250;2023-07-31T09:38:24;7.38;;;3.65;;
13592;SDS011;6867;50.998;4.250;2023-07-31T09:40:51;6.60;;;3.28;;
13592;SDS011;6867;50.998;4.250;2023-07-31T09:43:20;8.00;;;3.33;;
13592;SDS011;6867;50.998;4.250;2023-07-31T09:45:47;8.18;;;3.05;;
13592;SDS011;6867;50.998;4.250;2023-07-31T09:48:15;5.57;;;2.97;;
13592;SDS011;6867;50.998;4.250;2023-07-31T09:50:43;10.27;;;3.13;;
13592;SDS011;6867;50.998;4.250;2023-07-31T09:53:10;5.93;;;3.00;;
13592;SDS011;6867;50.998;4.250;2023-07-31T09:55:37;3.58;;;2.38;;
13592;SDS011;6867;50.998;4.250;2023-07-31T09:58:05;7.20;;;2.92;;
13592;SDS011;6867;50.998;4.250;2023-07-31T10:00:34;8.27;;;2.47;;
13592;SDS011;6867;50.998;4.250;2023-07-31T10:03:02;4.68;;;3.22;;
13592;SDS011;6867;50.998;4.250;2023-07-31T10:05:32;4.10;;;2.55;;
13592;SDS011;6867;50.998;4.250;2023-07-31T10:08:01;5.28;;;2.88;;
13592;SDS011;6867;50.998;4.250;2023-07-31T10:10:28;5.03;;;2.90;;
13592;SDS011;6867;50.998;4.250;2023-07-31T10:12:56;5.05;;;3.00;;
13592;SDS011;6867;50.998;4.250;2023-07-31T10:15:23;8.50;;;2.90;;
13592;SDS011;6867;50.998;4.250;2023-07-31T10:17:53;5.13;;;2.88;;
13592;SDS011;6867;50.998;4.250;2023-07-31T10:20:20;5.93;;;3.58;;
13592;SDS011;6867;50.998;4.250;2023-07-31T10:22:47;6.85;;;3.30;;
13592;SDS011;6867;50.998;4.250;2023-07-31T10:25:15;5.13;;;3.20;;
13592;SDS011;6867;50.998;4.250;2023-07-31T10:27:42;6.80;;;3.58;;
13592;SDS011;6867;50.998;4.250;2023-07-31T10:30:09;6.60;;;3.63;;
13592;SDS011;6867;50.998;4.250;2023-07-31T10:32:38;6.40;;;3.50;;
13592;SDS011;6867;50.998;4.250;2023-07-31T10:35:09;5.65;;;4.05;;
13592;SDS011;6867;50.998;4.250;2023-07-31T10:37:36;8.43;;;4.13;;
13592;SDS011;6867;50.998;4.250;2023-07-31T10:40:05;5.45;;;3.20;;
13592;SDS011;6867;50.998;4.250;2023-07-31T10:42:34;7.70;;;3.72;;
13592;SDS011;6867;50.998;4.250;2023-07-31T10:45:02;6.57;;;3.42;;
13592;SDS011;6867;50.998;4.250;2023-07-31T10:47:30;5.80;;;3.97;;
13592;SDS011;6867;50.998;4.250;2023-07-31T10:50:16;6.18;;;3.63;;
13592;SDS011;6867;50.998;4.250;2023-07-31T10:52:48;7.68;;;3.85;;
13592;SDS011;6867;50.998;4.250;2023-07-31T10:55:16;6.10;;;3.78;;
13592;SDS011;6867;50.998;4.250;2023-07-31T10:57:51;6.45;;;3.90;;
13592;SDS011;6867;50.998;4.250;2023-07-31T11:00:18;6.82;;;4.38;;
13592;SDS011;6867;50.998;4.250;2023-07-31T11:02:57;7.25;;;3.80;;
13592;SDS011;6867;50.998;4.250;2023-07-31T11:05:44;8.25;;;3.70;;
13592;SDS011;6867;50.998;4.250;2023-07-31T11:08:13;6.53;;;3.58;;
13592;SDS011;6867;50.998;4.250;2023-07-31T11:10:41;5.85;;;3.80;;
13592;SDS011;6867;50.998;4.250;2023-07-31T11:13:09;7.50;;;4.07;;
13592;SDS011;6867;50.998;4.250;2023-07-31T11:15:35;5.20;;;3.40;;
13592;SDS011;6867;50.998;4.250;2023-07-31T11:18:02;8.40;;;3.45;;
13592;SDS011;6867;50.998;4.250;2023-07-31T11:20:30;8.38;;;3.70;;
13592;SDS011;6867;50.998;4.250;2023-07-31T11:23:00;8.13;;;4.18;;
13592;SDS011;6867;50.998;4.250;2023-07-31T11:25:28;9.07;;;3.72;;
13592;SDS011;6867;50.998;4.250;2023-07-31T11:27:56;8.25;;;3.90;;
13592;SDS011;6867;50.998;4.250;2023-07-31T11:30:23;6.85;;;4.07;;
13592;SDS011;6867;50.998;4.250;2023-07-31T11:32:50;8.73;;;4.43;;
13592;SDS011;6867;50.998;4.250;2023-07-31T11:35:17;7.40;;;3.58;;
13592;SDS011;6867;50.998;4.250;2023-07-31T11:37:44;7.10;;;4.30;;
13592;SDS011;6867;50.998;4.250;2023-07-31T11:40:12;7.47;;;3.90;;
13592;SDS011;6867;50.998;4.250;2023-07-31T11:42:39;8.20;;;3.90;;
13592;SDS011;6867;50.998;4.250;2023-07-31T11:45:06;6.15;;;3.95;;
13592;SDS011;6867;50.998;4.250;2023-07-31T11:47:34;7.28;;;3.78;;
13592;SDS011;6867;50.998;4.250;2023-07-31T11:50:02;6.80;;;3.63;;
13592;SDS011;6867;50.998;4.250;2023-07-31T11:52:31;8.32;;;3.78;;
13592;SDS011;6867;50.998;4.250;2023-07-31T11:55:00;8.35;;;3.85;;
13592;SDS011;6867;50.998;4.250;2023-07-31T11:57:28;9.68;;;4.45;;
13592;SDS011;6867;50.998;4.250;2023-07-31T11:59:55;9.30;;;4.18;;
13592;SDS011;6867;50.998;4.250;2023-07-31T12:02:23;8.32;;;4.32;;
13592;SDS011;6867;50.998;4.250;2023-07-31T12:04:50;7.05;;;4.03;;
13592;SDS011;6867;50.998;4.250;2023-07-31T12:07:17;6.50;;;3.88;;
13592;SDS011;6867;50.998;4.250;2023-07-31T12:09:51;5.63;;;3.47;;
13592;SDS011;6867;50.998;4.250;2023-07-31T12:12:19;12.52;;;4.18;;
13592;SDS011;6867;50.998;4.250;2023-07-31T12:14:47;6.15;;;3.80;;
13592;SDS011;6867;50.998;4.250;2023-07-31T12:17:16;9.60;;;4.07;;
13592;SDS011;6867;50.998;4.250;2023-07-31T12:19:45;8.95;;;3.67;;
13592;SDS011;6867;50.998;4.250;2023-07-31T12:22:12;6.45;;;4.07;;
13592;SDS011;6867;50.998;4.250;2023-07-31T12:24:39;5.72;;;3.35;;
13592;SDS011;6867;50.998;4.250;2023-07-31T12:27:09;7.80;;;3.60;;
13592;SDS011;6867;50.998;4.250;2023-07-31T12:29:37;6.60;;;3.58;;
13592;SDS011;6867;50.998;4.250;2023-07-31T12:32:19;8.70;;;3.45;;
13592;SDS011;6867;50.998;4.250;2023-07-31T12:34:46;8.43;;;4.03;;
13592;SDS011;6867;50.998;4.250;2023-07-31T12:37:13;4.78;;;3.30;;
13592;SDS011;6867;50.998;4.250;2023-07-31T12:39:40;7.30;;;3.75;;
13592;SDS011;6867;50.998;4.250;2023-07-31T12:42:06;6.75;;;4.10;;
13592;SDS011;6867;50.998;4.250;2023-07-31T12:44:32;7.40;;;4.07;;
13592;SDS011;6867;50.998;4.250;2023-07-31T12:46:59;5.55;;;3.53;;
13592;SDS011;6867;50.998;4.250;2023-07-31T12:49:27;10.23;;;4.20;;
13592;SDS011;6867;50.998;4.250;2023-07-31T12:51:53;8.57;;;3.83;;
13592;SDS011;6867;50.998;4.250;2023-07-31T12:54:20;7.85;;;4.13;;
13592;SDS011;6867;50.998;4.250;2023-07-31T12:56:46;5.53;;;3.78;;
13592;SDS011;6867;50.998;4.250;2023-07-31T12:59:13;8.77;;;4.40;;
13592;SDS011;6867;50.998;4.250;2023-07-31T13:01:40;6.32;;;3.80;;
13592;SDS011;6867;50.998;4.250;2023-07-31T13:04:07;10.07;;;3.80;;
13592;SDS011;6867;50.998;4.250;2023-07-31T13:06:35;8.48;;;4.10;;
13592;SDS011;6867;50.998;4.250;2023-07-31T13:09:02;10.40;;;4.35;;
13592;SDS011;6867;50.998;4.250;2023-07-31T13:11:29;8.38;;;3.55;;
13592;SDS011;6867;50.998;4.250;2023-07-31T13:13:56;7.28;;;3.95;;
13592;SDS011;6867;50.998;4.250;2023-07-31T13:16:22;6.22;;;3.30;;
13592;SDS011;6867;50.998;4.250;2023-07-31T13:18:49;5.95;;;3.13;;
13592;SDS011;6867;50.998;4.250;2023-07-31T13:21:16;9.82;;;3.55;;
13592;SDS011;6867;50.998;4.250;2023-07-31T13:23:45;5.60;;;3.10;;
13592;SDS011;6867;50.998;4.250;2023-07-31T13:26:11;8.38;;;4.35;;
13592;SDS011;6867;50.998;4.250;2023-07-31T13:28:38;4.18;;;2.78;;
13592;SDS011;6867;50.998;4.250;2023-07-31T13:31:04;5.53;;;2.40;;
13592;SDS011;6867;50.998;4.250;2023-07-31T13:33:31;4.97;;;2.80;;
13592;SDS011;6867;50.998;4.250;2023-07-31T13:35:58;6.63;;;2.65;;
13592;SDS011;6867;50.998;4.250;2023-07-31T13:38:24;3.72;;;2.00;;
13592;SDS011;6867;50.998;4.250;2023-07-31T13:40:52;4.20;;;2.17;;
13592;SDS011;6867;50.998;4.250;2023-07-31T13:43:19;2.10;;;1.90;;
13592;SDS011;6867;50.998;4.250;2023-07-31T13:45:46;4.80;;;2.45;;
13592;SDS011;6867;50.998;4.250;2023-07-31T13:48:12;3.40;;;2.20;;
13592;SDS011;6867;50.998;4.250;2023-07-31T13:50:39;3.47;;;1.98;;
13592;SDS011;6867;50.998;4.250;2023-07-31T13:53:06;3.53;;;2.35;;
13592;SDS011;6867;50.998;4.250;2023-07-31T13:55:32;4.55;;;2.00;;
13592;SDS011;6867;50.998;4.250;2023-07-31T13:58:00;2.58;;;2.00;;
13592;SDS011;6867;50.998;4.250;2023-07-31T14:00:27;4.82;;;2.47;;
13592;SDS011;6867;50.998;4.250;2023-07-31T14:02:54;2.42;;;1.90;;
13592;SDS011;6867;50.998;4.250;2023-07-31T14:05:21;2.55;;;2.03;;
13592;SDS011;6867;50.998;4.250;2023-07-31T14:07:48;3.53;;;2.50;;
13592;SDS011;6867;50.998;4.250;2023-07-31T14:10:14;3.63;;;2.58;;
13592;SDS011;6867;50.998;4.250;2023-07-31T14:12:41;4.40;;;2.58;;
13592;SDS011;6867;50.998;4.250;2023-07-31T14:15:10;5.10;;;2.63;;
13592;SDS011;6867;50.998;4.250;2023-07-31T14:17:36;3.85;;;2.63;;
13592;SDS011;6867;50.998;4.250;2023-07-31T14:20:03;4.50;;;3.13;;
13592;SDS011;6867;50.998;4.250;2023-07-31T14:22:31;6.97;;;2.92;;
13592;SDS011;6867;50.998;4.250;2023-07-31T14:24:59;5.95;;;2.90;;
13592;SDS011;6867;50.998;4.250;2023-07-31T14:27:25;5.88;;;3.30;;
13592;SDS011;6867;50.998;4.250;2023-07-31T14:29:52;4.60;;;2.92;;
13592;SDS011;6867;50.998;4.250;2023-07-31T14:32:20;5.90;;;3.50;;
13592;SDS011;6867;50.998;4.250;2023-07-31T14:34:48;6.90;;;3.22;;
13592;SDS011;6867;50.998;4.250;2023-07-31T14:37:15;4.97;;;3.00;;
13592;SDS011;6867;50.998;4.250;2023-07-31T14:39:41;5.07;;;3.20;;
13592;SDS011;6867;50.998;4.250;2023-07-31T14:42:08;3.80;;;2.58;;
13592;SDS011;6867;50.998;4.250;2023-07-31T14:44:35;4.38;;;3.10;;
13592;SDS011;6867;50.998;4.250;2023-07-31T14:47:02;4.85;;;2.80;;
13592;SDS011;6867;50.998;4.250;2023-07-31T14:49:30;5.93;;;2.75;;
13592;SDS011;6867;50.998;4.250;2023-07-31T14:51:56;3.30;;;2.25;;
13592;SDS011;6867;50.998;4.250;2023-07-31T14:54:23;4.60;;;2.75;;
13592;SDS011;6867;50.998;4.250;2023-07-31T14:56:50;4.35;;;2.33;;